Time;durP1;ratioP1;P1;durP2;ratioP2;P2;SDS_P1;SDS_P2;PMS_P1;PMS_P2;Temp;Humidity;BMP_temperature;BMP_pressure;BME280_temperature;BME280_humidity;BME280_pressure;Samples;Min_cycle;Max_cycle;Signal;HPM_P1;HPM_P2
2022/06/18 00:01:35;;;;;;;9.73;4.20;;;;;;;22.92;54.95;101647.16;5034904;28;20037;-67
2022/06/18 00:04:11;;;;;;;11.40;4.50;;;;;;;22.93;55.15;101649.56;5034492;28;20489;-68
2022/06/18 00:06:52;;;;;;;13.38;4.63;;;;;;;22.77;56.13;101642.53;5033283;28;20021;-69
2022/06/18 00:09:21;;;;;;;11.32;4.40;;;;;;;22.83;55.31;101643.38;5034614;28;20028;-69
2022/06/18 00:14:33;;;;;;;14.00;4.55;;;;;;;22.71;55.75;101649.59;5034838;28;20060;-69
2022/06/18 00:17:01;;;;;;;12.30;4.28;;;;;;;22.60;56.58;101647.88;5034645;28;20465;-67
2022/06/18 00:19:26;;;;;;;9.05;4.32;;;;;;;22.59;56.54;101654.22;5034208;28;20385;-67
2022/06/18 00:21:52;;;;;;;11.05;4.47;;;;;;;22.52;56.66;101650.94;5034544;28;20139;-69
2022/06/18 00:24:20;;;;;;;6.07;4.10;;;;;;;22.49;56.99;101639.06;5032974;28;20171;-70
2022/06/18 00:26:46;;;;;;;10.20;4.40;;;;;;;22.45;57.03;101635.34;5034643;28;20025;-68
2022/06/18 00:29:14;;;;;;;10.07;4.45;;;;;;;22.28;57.67;101639.88;5034150;28;20025;-67
2022/06/18 00:31:40;;;;;;;13.32;4.47;;;;;;;22.23;58.89;101642.44;5034364;28;20099;-68
2022/06/18 00:34:06;;;;;;;10.65;4.65;;;;;;;22.24;58.42;101633.47;5034224;28;20074;-67
2022/06/18 00:36:31;;;;;;;9.80;4.32;;;;;;;22.31;57.91;101642.00;5032809;28;20045;-67
2022/06/18 00:38:57;;;;;;;9.55;4.63;;;;;;;22.35;58.16;101645.75;5033941;28;20033;-68
2022/06/18 00:41:25;;;;;;;8.77;4.70;;;;;;;22.35;57.96;101635.22;5034228;28;20104;-67
2022/06/18 00:43:55;;;;;;;17.33;4.70;;;;;;;22.26;58.03;101632.19;5033932;28;20037;-67
2022/06/18 00:46:24;;;;;;;13.10;5.32;;;;;;;22.22;58.42;101640.84;5032719;28;20032;-67
2022/06/18 00:49:04;;;;;;;14.70;4.85;;;;;;;22.18;58.75;101632.66;5033970;28;20100;-68
2022/06/18 00:51:40;;;;;;;9.15;4.28;;;;;;;21.98;58.87;101613.91;5033572;28;20026;-67
2022/06/18 00:54:17;;;;;;;9.85;4.50;;;;;;;22.04;59.25;101631.38;5032589;28;20036;-68
2022/06/18 00:57:07;;;;;;;8.23;4.30;;;;;;;21.97;59.46;101617.59;5032671;28;20025;-68
2022/06/18 00:59:38;;;;;;;12.88;4.45;;;;;;;22.09;59.01;101629.59;5032573;28;20026;-68
2022/06/18 01:02:04;;;;;;;10.18;4.65;;;;;;;21.99;59.47;101621.56;5032401;28;20120;-69
2022/06/18 01:04:32;;;;;;;8.48;4.88;;;;;;;21.90;59.73;101623.03;5033635;28;20076;-68
2022/06/18 01:07:13;;;;;;;9.98;4.40;;;;;;;21.89;59.68;101618.78;5033774;28;20025;-68
2022/06/18 01:09:39;;;;;;;8.05;4.60;;;;;;;21.84;60.33;101624.78;5033686;28;20084;-68
2022/06/18 01:12:05;;;;;;;11.85;4.88;;;;;;;21.76;60.70;101619.94;5033497;28;20457;-68
2022/06/18 01:14:32;;;;;;;13.45;4.90;;;;;;;21.70;60.64;101622.75;5033460;28;20029;-68
2022/06/18 01:17:01;;;;;;;12.85;4.55;;;;;;;21.72;60.75;101621.47;5032456;28;20032;-68
2022/06/18 01:19:33;;;;;;;10.63;4.57;;;;;;;21.65;61.36;101620.81;5032486;28;20049;-68
2022/06/18 01:22:36;;;;;;;9.18;4.53;;;;;;;21.63;61.28;101621.03;5033721;28;20033;-67
2022/06/18 01:25:06;;;;;;;11.85;4.32;;;;;;;21.74;60.73;101618.56;5032149;28;20056;-67
2022/06/18 01:27:37;;;;;;;9.00;4.80;;;;;;;21.74;61.00;101629.09;5033519;28;20079;-67
2022/06/18 01:30:14;;;;;;;8.77;4.50;;;;;;;21.68;61.46;101615.06;5033302;28;20503;-67
2022/06/18 01:32:41;;;;;;;12.35;4.68;;;;;;;21.62;61.50;101613.41;5033277;28;20029;-67
2022/06/18 01:35:07;;;;;;;12.65;4.70;;;;;;;21.69;61.53;101610.59;5033491;28;20022;-68
2022/06/18 01:37:33;;;;;;;6.75;4.10;;;;;;;21.68;61.60;101604.56;5033189;28;20108;-67
2022/06/18 01:40:01;;;;;;;9.93;4.20;;;;;;;21.69;61.58;101600.09;5032351;28;20461;-68
2022/06/18 01:42:38;;;;;;;11.48;4.28;;;;;;;21.63;62.36;101604.47;5033315;28;20465;-67
2022/06/18 01:45:08;;;;;;;8.70;4.10;;;;;;;21.60;62.45;101597.84;5033461;28;20025;-68
2022/06/18 01:47:45;;;;;;;11.45;4.60;;;;;;;21.69;62.45;101605.34;5032104;28;20059;-68
2022/06/18 01:50:22;;;;;;;10.30;4.25;;;;;;;21.67;62.50;101591.66;5033258;28;20477;-67
2022/06/18 01:52:53;;;;;;;8.85;4.40;;;;;;;21.65;62.59;101601.63;5033178;28;20025;-68
2022/06/18 01:55:24;;;;;;;9.48;4.22;;;;;;;21.63;62.86;101600.00;5032020;28;20532;-69
2022/06/18 01:58:15;;;;;;;9.13;4.50;;;;;;;21.53;63.60;101604.34;5033232;28;20026;-67
2022/06/18 02:00:42;;;;;;;11.00;4.20;;;;;;;21.44;64.01;101603.16;5031855;28;20373;-68
2022/06/18 02:03:08;;;;;;;11.07;4.40;;;;;;;21.44;63.85;101606.56;5031792;28;20049;-68
2022/06/18 02:05:34;;;;;;;10.25;4.63;;;;;;;21.30;65.03;101603.41;5036912;28;20365;-67
2022/06/18 02:07:59;;;;;;;10.70;4.40;;;;;;;21.31;64.55;101596.31;5035567;28;20021;-68
2022/06/18 02:10:38;;;;;;;12.32;4.43;;;;;;;21.26;64.91;101598.88;5035560;28;20610;-67
2022/06/18 02:13:04;;;;;;;10.35;4.32;;;;;;;21.25;66.09;101605.16;5036818;28;20084;-67
2022/06/18 02:15:35;;;;;;;11.88;4.70;;;;;;;21.15;65.59;101598.72;5036929;28;20376;-67
2022/06/18 02:18:05;;;;;;;10.05;4.70;;;;;;;21.15;65.66;101597.94;5036735;28;20469;-67
2022/06/18 02:20:34;;;;;;;12.73;4.95;;;;;;;21.28;65.21;101596.81;5036848;28;20526;-67
2022/06/18 02:22:59;;;;;;;10.52;4.97;;;;;;;21.11;65.95;101597.59;5036600;28;20021;-68
2022/06/18 02:25:27;;;;;;;11.82;4.80;;;;;;;21.04;66.77;101590.91;5036966;28;20373;-68
2022/06/18 02:28:05;;;;;;;18.15;5.00;;;;;;;20.90;67.81;101593.03;5035387;28;20500;-67
2022/06/18 02:30:35;;;;;;;11.07;4.47;;;;;;;20.77;67.96;101603.81;5036729;28;20029;-67
2022/06/18 02:33:38;;;;;;;10.88;4.70;;;;;;;20.89;67.98;101596.69;5035220;28;20056;-68
2022/06/18 02:36:25;;;;;;;24.95;5.13;;;;;;;20.76;68.23;101596.97;5036382;28;20029;-68
2022/06/18 02:38:58;;;;;;;10.52;5.03;;;;;;;20.85;67.95;101595.56;5034903;28;20032;-67
2022/06/18 02:41:24;;;;;;;15.27;5.10;;;;;;;20.79;68.68;101601.75;5036238;28;20107;-67
2022/06/18 02:43:51;;;;;;;17.80;4.90;;;;;;;20.79;68.80;101604.38;5036239;28;20121;-67
2022/06/18 02:46:17;;;;;;;12.88;4.90;;;;;;;20.74;69.20;101612.94;5036332;28;20022;-67
2022/06/18 02:48:43;;;;;;;12.63;5.07;;;;;;;20.64;69.71;101608.31;5036034;28;20154;-68
2022/06/18 02:51:12;;;;;;;20.40;5.20;;;;;;;20.57;70.21;101614.72;5036134;28;20033;-67
2022/06/18 02:53:37;;;;;;;14.50;4.72;;;;;;;20.58;70.13;101611.09;5036219;28;20053;-68
2022/06/18 02:56:05;;;;;;;11.57;5.30;;;;;;;20.50;70.34;101605.13;5035919;28;20496;-68
2022/06/18 02:58:37;;;;;;;17.90;5.10;;;;;;;20.47;70.52;101610.06;5034712;28;20124;-68
2022/06/18 03:01:05;;;;;;;16.20;4.97;;;;;;;20.65;69.78;101616.97;5036017;28;20044;-67
2022/06/18 03:03:38;;;;;;;14.68;5.35;;;;;;;20.66;70.21;101608.09;5034437;28;20050;-68
2022/06/18 03:06:04;;;;;;;17.30;5.50;;;;;;;20.49;70.87;101623.75;5036009;28;20021;-68
2022/06/18 03:08:31;;;;;;;12.70;5.35;;;;;;;20.44;71.28;101621.81;5034636;28;20112;-68
2022/06/18 03:13:42;;;;;;;16.38;5.53;;;;;;;20.45;71.53;101630.47;5035925;28;20527;-69
2022/06/18 03:16:10;;;;;;;14.43;5.32;;;;;;;20.44;71.53;101626.25;5033945;28;20032;-68
2022/06/18 03:18:38;;;;;;;14.57;5.28;;;;;;;20.28;72.38;101638.25;5035796;28;20030;-67
2022/06/18 03:21:15;;;;;;;17.50;5.20;;;;;;;20.27;72.37;101637.47;5034184;28;20063;-68
2022/06/18 03:23:41;;;;;;;16.67;6.05;;;;;;;20.24;72.47;101643.19;5035384;28;20029;-68
2022/06/18 03:26:07;;;;;;;18.02;5.32;;;;;;;20.06;72.95;101644.13;5035439;28;20021;-68
2022/06/18 03:28:32;;;;;;;16.27;5.85;;;;;;;20.06;73.52;101638.06;5035269;28;20369;-68
2022/06/18 03:30:58;;;;;;;21.45;6.10;;;;;;;20.02;73.93;101640.38;5035214;28;20041;-68
2022/06/18 03:33:23;;;;;;;15.15;5.93;;;;;;;20.03;73.81;101643.78;5035356;28;20457;-68
2022/06/18 03:35:50;;;;;;;24.05;6.00;;;;;;;20.05;74.19;101637.28;5035310;28;20041;-69
2022/06/18 03:38:16;;;;;;;22.15;5.95;;;;;;;20.09;74.19;101645.50;5033849;28;20029;-68
2022/06/18 03:40:45;;;;;;;15.90;5.85;;;;;;;20.11;73.96;101645.25;5035185;28;20128;-68
2022/06/18 03:43:12;;;;;;;16.15;6.00;;;;;;;20.07;74.28;101644.91;5034862;28;20029;-67
2022/06/18 03:45:41;;;;;;;18.25;6.38;;;;;;;20.05;74.32;101646.94;5033809;28;20075;-68
2022/06/18 03:48:07;;;;;;;15.70;5.72;;;;;;;20.05;74.49;101646.94;5033840;28;20029;-68
2022/06/18 03:50:33;;;;;;;24.23;6.35;;;;;;;20.04;75.00;101648.00;5033582;28;20412;-68
2022/06/18 03:52:59;;;;;;;17.95;5.57;;;;;;;20.10;74.71;101649.69;5033611;28;20033;-67
2022/06/18 03:55:25;;;;;;;18.92;5.97;;;;;;;20.04;75.15;101648.78;5034942;28;20029;-68
2022/06/18 03:57:51;;;;;;;23.70;5.90;;;;;;;20.11;74.87;101650.50;5033662;28;20021;-68
2022/06/18 04:00:20;;;;;;;16.38;5.88;;;;;;;20.14;75.57;101652.66;5034809;28;20439;-67
2022/06/18 04:02:46;;;;;;;18.23;6.53;;;;;;;20.10;75.56;101643.66;5034492;28;20033;-68
2022/06/18 04:05:12;;;;;;;14.82;6.22;;;;;;;20.16;74.98;101643.53;5034739;28;20070;-67
2022/06/18 04:07:38;;;;;;;16.38;5.97;;;;;;;20.23;75.25;101644.22;5034592;28;20042;-67
2022/06/18 04:10:06;;;;;;;19.33;5.78;;;;;;;20.20;75.25;101651.75;5034815;28;20022;-68
2022/06/18 04:12:32;;;;;;;18.70;6.10;;;;;;;20.17;75.88;101653.03;5034295;28;20036;-67
2022/06/18 04:14:57;;;;;;;23.85;6.25;;;;;;;20.19;75.36;101652.78;5033188;28;20075;-69
2022/06/18 04:17:22;;;;;;;13.95;5.95;;;;;;;20.26;75.36;101649.00;5034227;28;20114;-68
2022/06/18 04:19:48;;;;;;;16.02;6.57;;;;;;;20.28;75.01;101644.34;5034384;28;20025;-68
2022/06/18 04:22:13;;;;;;;17.40;6.28;;;;;;;20.36;74.89;101655.50;5034305;28;20457;-68
2022/06/18 04:24:39;;;;;;;19.80;6.20;;;;;;;20.44;74.79;101652.53;5033065;28;20113;-68
2022/06/18 04:27:05;;;;;;;17.27;6.05;;;;;;;20.41;74.51;101658.22;5033700;28;20026;-68
2022/06/18 04:29:31;;;;;;;20.67;6.32;;;;;;;20.37;74.65;101651.81;5033248;28;20454;-68
2022/06/18 04:31:57;;;;;;;17.02;6.20;;;;;;;20.32;74.57;101657.78;5034420;28;20057;-68
2022/06/18 04:34:22;;;;;;;20.58;6.20;;;;;;;20.37;74.48;101646.56;5032962;28;20057;-68
2022/06/18 04:36:47;;;;;;;23.20;7.40;;;;;;;20.39;74.10;101647.94;5034329;28;20351;-67
2022/06/18 04:39:13;;;;;;;23.23;6.13;;;;;;;20.48;74.43;101643.13;5032834;28;20034;-68
2022/06/18 04:41:40;;;;;;;20.08;6.72;;;;;;;20.59;73.46;101639.72;5033816;28;20100;-68
2022/06/18 04:44:05;;;;;;;16.50;6.80;;;;;;;20.51;73.36;101642.66;5032956;28;20030;-68
2022/06/18 04:46:31;;;;;;;23.92;6.75;;;;;;;20.60;72.84;101635.25;5034056;28;20126;-67
2022/06/18 04:48:57;;;;;;;20.48;6.28;;;;;;;20.83;72.63;101643.09;5034072;28;20017;-67
2022/06/18 04:51:22;;;;;;;16.25;5.85;;;;;;;20.84;72.33;101638.63;5033683;28;20021;-67
2022/06/18 04:53:48;;;;;;;21.42;6.70;;;;;;;20.70;72.24;101633.63;5032784;28;20380;-68
2022/06/18 04:56:13;;;;;;;16.77;6.15;;;;;;;21.01;71.71;101636.84;5032470;28;20508;-67
2022/06/18 04:58:39;;;;;;;19.80;6.22;;;;;;;21.01;71.50;101630.78;5033887;28;20053;-66
2022/06/18 05:01:04;;;;;;;20.08;6.88;;;;;;;21.01;71.65;101642.09;5032566;28;20060;-66
2022/06/18 05:03:30;;;;;;;21.58;6.40;;;;;;;21.06;71.63;101631.69;5032360;28;20144;-67
2022/06/18 05:05:56;;;;;;;24.60;6.95;;;;;;;21.23;70.62;101638.78;5033884;28;20483;-68
2022/06/18 05:08:21;;;;;;;22.95;6.10;;;;;;;21.38;70.47;101642.50;5032460;28;20083;-67
2022/06/18 05:10:47;;;;;;;18.02;6.55;;;;;;;21.37;70.39;101640.88;5033777;28;20424;-68
2022/06/18 05:13:12;;;;;;;18.73;6.22;;;;;;;21.56;69.50;101648.56;5032555;28;20032;-68
2022/06/18 05:15:40;;;;;;;15.77;6.28;;;;;;;21.96;68.04;101640.47;5032574;28;20021;-68
2022/06/18 05:18:06;;;;;;;22.63;6.57;;;;;;;21.71;68.54;101637.47;5032240;28;20036;-67
2022/06/18 05:20:32;;;;;;;22.83;6.50;;;;;;;21.69;68.13;101642.97;5032119;28;20076;-68
2022/06/18 05:22:57;;;;;;;17.92;5.88;;;;;;;21.80;68.97;101639.44;5033567;28;20049;-68
2022/06/18 05:25:23;;;;;;;22.25;6.43;;;;;;;21.92;68.01;101641.97;5033343;28;20108;-67
2022/06/18 05:27:48;;;;;;;23.20;6.50;;;;;;;22.29;66.72;101641.44;5032342;28;20025;-68
2022/06/18 05:30:17;;;;;;;20.80;6.60;;;;;;;23.16;63.92;101639.78;5033443;28;20116;-67
2022/06/18 05:32:42;;;;;;;20.42;6.18;;;;;;;24.29;59.46;101647.41;5033424;28;20061;-68
2022/06/18 05:35:08;;;;;;;18.70;6.32;;;;;;;25.37;56.14;101645.03;5033605;28;20079;-67
2022/06/18 05:37:35;;;;;;;22.55;6.50;;;;;;;26.28;53.25;101636.13;5033875;28;20025;-70
2022/06/18 05:40:01;;;;;;;23.15;6.78;;;;;;;26.32;53.13;101645.09;5037328;28;20484;-68
2022/06/18 05:42:26;;;;;;;22.95;6.18;;;;;;;26.17;53.68;101649.69;5036087;28;20037;-69
2022/06/18 05:44:52;;;;;;;25.75;6.75;;;;;;;26.50;52.66;101649.03;5037310;28;20025;-67
2022/06/18 05:47:22;;;;;;;22.65;6.88;;;;;;;26.21;52.75;101650.72;5036369;28;20087;-68
2022/06/18 05:49:47;;;;;;;19.23;6.63;;;;;;;26.67;52.14;101661.94;5036303;28;20107;-68
2022/06/18 05:52:13;;;;;;;21.67;6.50;;;;;;;26.84;51.07;101652.81;5037904;28;20104;-68
2022/06/18 05:54:38;;;;;;;22.02;6.35;;;;;;;27.22;50.29;101653.91;5037656;28;20030;-68
2022/06/18 05:57:04;;;;;;;22.33;6.45;;;;;;;27.34;49.43;101651.66;5037561;28;20542;-76
2022/06/18 05:59:30;;;;;;;18.45;6.40;;;;;;;27.53;49.35;101648.31;5036108;28;20457;-77
2022/06/18 06:01:56;;;;;;;22.30;6.13;;;;;;;28.15;48.00;101657.25;5036544;28;20029;-76
2022/06/18 06:04:26;;;;;;;23.67;6.18;;;;;;;28.28;47.36;101651.25;5037045;28;20056;-77
2022/06/18 06:06:52;;;;;;;20.63;6.15;;;;;;;28.58;47.46;101646.63;5037351;28;20029;-76
2022/06/18 06:12:04;;;;;;;18.48;6.18;;;;;;;28.52;46.85;101647.78;5037363;28;20048;-77
2022/06/18 06:14:29;;;;;;;18.42;6.22;;;;;;;28.85;46.26;101653.13;5036713;28;20075;-77
2022/06/18 06:16:57;;;;;;;21.50;6.40;;;;;;;28.82;45.35;101633.22;5035410;28;20033;-77
2022/06/18 06:19:22;;;;;;;17.73;6.13;;;;;;;28.46;47.29;101643.59;5035464;28;20128;-77
2022/06/18 06:21:47;;;;;;;18.25;5.80;;;;;;;28.61;47.18;101648.69;5036870;28;20026;-77
2022/06/18 06:24:13;;;;;;;24.23;6.32;;;;;;;29.18;45.70;101652.13;5035250;28;20410;-76
2022/06/18 06:26:38;;;;;;;19.52;6.18;;;;;;;29.01;45.59;101659.81;5037239;28;20112;-76
2022/06/18 06:29:03;;;;;;;18.70;5.82;;;;;;;28.89;45.81;101667.47;5035363;28;20396;-76
2022/06/18 06:31:29;;;;;;;17.67;5.38;;;;;;;28.73;46.78;101666.88;5035472;28;20025;-76
2022/06/18 06:33:54;;;;;;;18.92;5.53;;;;;;;28.43;47.27;101668.88;5036777;28;20025;-76
2022/06/18 06:36:20;;;;;;;19.20;5.83;;;;;;;27.89;48.23;101673.47;5036560;28;20060;-76
2022/06/18 06:38:45;;;;;;;24.42;6.10;;;;;;;27.75;49.52;101685.78;5034829;28;20283;-76
2022/06/18 06:41:15;;;;;;;19.77;5.18;;;;;;;27.17;51.05;101689.22;5036546;28;20063;-76
2022/06/18 06:43:41;;;;;;;27.33;5.43;;;;;;;26.64;52.48;101685.53;5035099;28;20056;-76
2022/06/18 06:46:12;;;;;;;15.10;5.15;;;;;;;26.63;51.51;101684.75;5036602;28;20056;-75
2022/06/18 06:48:38;;;;;;;19.70;5.65;;;;;;;26.78;51.35;101683.88;5036535;28;20079;-76
2022/06/18 06:51:11;;;;;;;20.83;5.28;;;;;;;26.20;53.52;101694.16;5034291;28;20026;-76
2022/06/18 06:53:37;;;;;;;15.82;5.03;;;;;;;26.39;52.56;101691.72;5036483;28;20064;-76
2022/06/18 06:58:46;;;;;;;16.92;5.32;;;;;;;26.38;53.06;101706.81;5036245;28;20136;-77
2022/06/18 07:01:11;;;;;;;17.40;5.18;;;;;;;26.74;51.68;101701.41;5035957;28;20022;-76
2022/06/18 07:03:36;;;;;;;18.27;5.05;;;;;;;26.66;52.47;101713.34;5035393;28;20048;-76
2022/06/18 07:06:03;;;;;;;18.85;5.20;;;;;;;26.73;51.57;101711.22;5033991;28;20396;-76
2022/06/18 07:08:28;;;;;;;20.90;5.43;;;;;;;26.75;51.99;101713.56;5034782;28;20025;-77
2022/06/18 07:10:54;;;;;;;16.60;5.05;;;;;;;27.07;50.85;101714.97;5035926;28;20025;-77
2022/06/18 07:13:20;;;;;;;20.85;5.72;;;;;;;26.44;52.72;101711.06;5035369;28;20469;-76
2022/06/18 07:15:46;;;;;;;23.92;5.63;;;;;;;27.17;50.36;101707.00;5034616;28;20350;-76
2022/06/18 07:18:18;;;;;;;20.85;5.60;;;;;;;27.25;50.86;101711.72;5034309;28;20033;-77
2022/06/18 07:20:44;;;;;;;16.42;5.53;;;;;;;26.98;50.70;101715.56;5035073;28;20113;-76
2022/06/18 07:23:10;;;;;;;18.48;5.32;;;;;;;27.08;50.82;101706.75;5035249;28;20112;-77
2022/06/18 07:25:35;;;;;;;18.17;5.18;;;;;;;27.27;49.48;101716.72;5034220;28;20032;-76
2022/06/18 07:28:01;;;;;;;17.25;5.68;;;;;;;26.77;51.24;101704.28;5035453;28;20196;-77
2022/06/18 07:30:26;;;;;;;20.77;5.85;;;;;;;26.65;51.88;101713.66;5033744;28;20025;-76
2022/06/18 07:32:52;;;;;;;16.05;5.15;;;;;;;27.06;51.37;101710.75;5035381;28;20033;-77
2022/06/18 07:35:25;;;;;;;17.17;5.30;;;;;;;26.82;51.70;101711.44;5035424;28;20029;-76
2022/06/18 07:37:53;;;;;;;17.58;5.57;;;;;;;26.22;53.58;101707.94;5035426;28;20040;-77
2022/06/18 07:40:20;;;;;;;17.92;5.05;;;;;;;26.51;51.98;101700.19;5035256;28;20032;-76
2022/06/18 07:42:48;;;;;;;18.58;5.38;;;;;;;26.76;51.76;101720.47;5035812;28;20034;-76
2022/06/18 07:45:15;;;;;;;16.27;5.20;;;;;;;27.02;51.94;101710.53;5035378;28;20480;-77
2022/06/18 07:47:40;;;;;;;15.50;5.47;;;;;;;26.89;51.47;101708.47;5035292;28;20025;-77
2022/06/18 07:50:06;;;;;;;17.55;4.90;;;;;;;26.80;53.10;101712.78;5035177;28;20026;-77
2022/06/18 07:52:31;;;;;;;18.80;4.80;;;;;;;27.14;51.29;101715.47;5035286;28;20041;-77
2022/06/18 07:54:58;;;;;;;16.27;4.95;;;;;;;27.06;50.43;101697.50;5033833;28;20021;-77
2022/06/18 07:57:23;;;;;;;18.55;4.82;;;;;;;27.10;50.78;101709.13;5035300;28;20034;-77
2022/06/18 07:59:49;;;;;;;20.05;5.35;;;;;;;27.61;50.28;101706.91;5035074;28;20044;-77
2022/06/18 08:02:15;;;;;;;14.85;4.43;;;;;;;27.70;49.16;101704.44;5032920;28;20029;-77
2022/06/18 08:04:41;;;;;;;16.33;4.60;;;;;;;28.13;48.73;101712.53;5034872;28;20549;-78
2022/06/18 08:07:06;;;;;;;16.75;4.65;;;;;;;28.25;47.64;101709.47;5035622;28;20029;-77
2022/06/18 08:09:33;;;;;;;13.68;4.20;;;;;;;28.19;47.87;101700.75;5033453;28;20022;-77
2022/06/18 08:11:59;;;;;;;12.60;4.38;;;;;;;28.19;48.15;101700.75;5033480;28;20021;-77
2022/06/18 08:14:25;;;;;;;18.88;4.95;;;;;;;27.77;49.01;101704.13;5034611;28;20111;-77
2022/06/18 08:16:50;;;;;;;18.17;4.45;;;;;;;28.24;47.78;101707.88;5034690;28;20094;-76
2022/06/18 08:19:15;;;;;;;12.27;4.03;;;;;;;28.22;48.46;101705.50;5034592;28;20025;-77
2022/06/18 08:21:43;;;;;;;12.55;4.25;;;;;;;28.19;47.84;101694.66;5034834;28;20040;-77
2022/06/18 08:24:12;;;;;;;12.70;4.20;;;;;;;28.23;48.41;101690.38;5034394;28;20025;-77
2022/06/18 08:26:40;;;;;;;14.23;4.35;;;;;;;28.29;47.84;101698.00;5034503;28;20017;-76
2022/06/18 08:29:08;;;;;;;12.48;3.97;;;;;;;28.50;47.81;101706.53;5033224;28;20088;-77
2022/06/18 08:31:33;;;;;;;19.25;4.43;;;;;;;28.49;47.66;101698.84;5034665;28;20032;-77
2022/06/18 08:33:59;;;;;;;16.48;4.82;;;;;;;28.83;47.47;101695.19;5033961;28;20025;-77
2022/06/18 08:36:25;;;;;;;14.87;4.00;;;;;;;28.74;47.72;101701.19;5033193;28;20377;-77
2022/06/18 08:38:51;;;;;;;16.83;3.90;;;;;;;29.16;46.54;101706.72;5034531;28;20296;-77
2022/06/18 08:41:56;;;;;;;17.85;4.20;;;;;;;29.21;45.32;101701.31;5034409;28;20029;-77
2022/06/18 08:44:37;;;;;;;15.90;3.67;;;;;;;29.02;46.00;101691.47;5033194;28;20025;-78
2022/06/18 08:47:25;;;;;;;12.10;3.80;;;;;;;29.09;47.06;101685.78;5032995;28;20384;-77
2022/06/18 08:49:59;;;;;;;11.63;3.80;;;;;;;28.53;46.54;101683.91;5034224;28;20104;-77
2022/06/18 08:52:42;;;;;;;15.15;4.32;;;;;;;28.94;46.33;101684.09;5032917;28;20024;-77
2022/06/18 08:55:24;;;;;;;15.75;4.15;;;;;;;28.81;46.31;101681.41;5033983;28;20025;-77
2022/06/18 08:58:16;;;;;;;15.82;3.70;;;;;;;28.40;46.99;101680.06;5034093;28;20033;-77
2022/06/18 09:01:00;;;;;;;;;;;;;;;29.49;45.18;101683.53;5033038;28;20534;-76
2022/06/18 09:04:00;;;;;;;8.85;3.58;;;;;;;29.85;44.24;101683.72;5033909;28;19909;-76
2022/06/18 09:06:34;;;;;;;10.73;3.80;;;;;;;29.01;46.59;101691.75;5033526;28;20028;-77
2022/06/18 09:09:25;;;;;;;9.70;3.72;;;;;;;28.87;47.41;101688.22;5033428;28;20025;-76
2022/06/18 09:12:07;;;;;;;12.10;3.42;;;;;;;30.24;43.87;101678.97;5032964;28;20025;-76
2022/06/18 09:15:19;;;;;;;17.98;3.78;;;;;;;30.18;44.15;101674.81;5033474;28;20086;-76
2022/06/18 09:17:51;;;;;;;10.80;3.70;;;;;;;30.06;44.16;101667.31;5028265;28;20037;-77
2022/06/18 09:20:25;;;;;;;18.30;3.60;;;;;;;30.25;43.37;101685.91;5031909;28;20079;-76
2022/06/18 09:22:54;;;;;;;11.52;3.40;;;;;;;29.78;44.25;101685.16;5033377;28;20025;-77
2022/06/18 09:25:22;;;;;;;12.65;3.42;;;;;;;30.29;43.81;101677.00;5033313;28;20358;-76
2022/06/18 09:27:53;;;;;;;10.40;3.35;;;;;;;30.61;43.48;101674.47;5033372;28;20017;-76
2022/06/18 09:30:25;;;;;;;10.45;3.30;;;;;;;30.51;43.41;101683.47;5033342;28;20104;-77
2022/06/18 09:33:02;;;;;;;15.45;3.90;;;;;;;30.47;43.28;101675.31;5033197;28;20575;-77
2022/06/18 09:35:35;;;;;;;8.45;3.00;;;;;;;30.43;42.86;101684.97;5033357;28;20041;-76
2022/06/18 09:38:07;;;;;;;15.60;3.60;;;;;;;30.33;43.43;101685.22;5033414;28;20029;-77
2022/06/18 09:40:37;;;;;;;11.25;3.35;;;;;;;30.40;43.40;101682.91;5031886;28;20033;-77
2022/06/18 09:43:28;;;;;;;12.75;3.38;;;;;;;30.87;42.60;101675.47;5032025;28;20033;-76
2022/06/18 09:45:59;;;;;;;7.93;2.90;;;;;;;30.70;42.66;101664.66;5033320;28;20048;-76
2022/06/18 09:48:24;;;;;;;8.82;2.85;;;;;;;30.76;42.03;101682.91;5031806;28;20032;-76
2022/06/18 09:51:00;;;;;;;16.05;3.40;;;;;;;30.67;42.35;101682.06;5033367;28;20025;-76
2022/06/18 09:53:34;;;;;;;10.90;3.00;;;;;;;30.65;44.17;101680.78;5032999;28;20021;-77
2022/06/18 09:56:13;;;;;;;10.70;2.88;;;;;;;30.74;42.93;101684.31;5031899;28;20037;-76
2022/06/18 09:58:45;;;;;;;9.00;2.60;;;;;;;30.85;41.42;101675.00;5033066;28;20047;-76
2022/06/18 10:01:37;;;;;;;9.15;3.10;;;;;;;31.07;41.40;101676.09;5033271;28;20036;-76
2022/06/18 10:06:57;;;;;;;9.75;2.80;;;;;;;30.87;42.75;101677.38;5033794;28;20116;-76
2022/06/18 10:09:44;;;;;;;9.57;2.50;;;;;;;30.62;43.04;101681.38;5033220;28;20477;-77
2022/06/18 10:12:21;;;;;;;8.35;2.40;;;;;;;30.73;43.56;101677.41;5031821;28;20030;-77
2022/06/18 10:14:57;;;;;;;7.38;2.38;;;;;;;30.73;43.51;101658.72;5033212;28;20481;-77
2022/06/18 10:17:38;;;;;;;9.32;2.40;;;;;;;30.97;42.38;101669.13;5031794;28;20039;-77
2022/06/18 10:20:25;;;;;;;8.98;2.40;;;;;;;30.99;42.97;101657.06;5031576;28;20361;-76
2022/06/18 10:23:19;;;;;;;6.05;1.90;;;;;;;31.15;42.61;101662.00;5031873;28;20030;-77
2022/06/18 10:26:03;;;;;;;7.70;2.15;;;;;;;31.25;42.14;101656.44;5035454;28;20100;-77
2022/06/18 10:28:31;;;;;;;5.50;2.15;;;;;;;30.94;41.53;101651.84;5036832;28;20102;-76
2022/06/18 10:31:18;;;;;;;12.18;2.10;;;;;;;30.61;42.19;101650.44;5036620;28;20093;-76
2022/06/18 10:33:55;;;;;;;10.55;2.50;;;;;;;28.78;45.63;101651.63;5036811;28;20028;-76
2022/06/18 10:37:00;;;;;;;6.43;2.10;;;;;;;29.94;45.00;101637.72;5036638;28;20033;-77
2022/06/18 10:39:41;;;;;;;7.72;1.98;;;;;;;31.01;43.00;101638.06;5023687;28;20538;-77
2022/06/18 10:42:39;;;;;;;8.55;2.17;;;;;;;31.41;41.21;101644.28;5036367;28;20136;-77
2022/06/18 10:45:39;;;;;;;5.20;1.70;;;;;;;29.57;44.53;101642.91;5034721;28;20041;-77
2022/06/18 10:48:11;;;;;;;6.40;1.90;;;;;;;30.16;44.60;101637.81;5034619;28;20041;-78
2022/06/18 10:50:46;;;;;;;5.35;1.83;;;;;;;30.68;41.98;101629.50;5036272;28;20061;-78
2022/06/18 10:53:15;;;;;;;4.45;1.67;;;;;;;30.83;42.39;101631.81;5035475;28;20017;-77
2022/06/18 10:55:41;;;;;;;8.18;2.15;;;;;;;31.18;41.38;101640.84;5034742;28;20108;-77
2022/06/18 10:58:14;;;;;;;7.82;1.73;;;;;;;31.27;40.71;101642.75;5034899;28;20425;-77
2022/06/18 11:00:54;;;;;;;4.07;1.80;;;;;;;31.93;39.90;101635.69;5034757;28;20080;-76
2022/06/18 11:03:25;;;;;;;4.18;1.42;;;;;;;31.50;39.95;101630.19;5035820;28;20041;-77
2022/06/18 11:05:50;;;;;;;6.53;1.80;;;;;;;31.70;41.08;101627.72;5034777;28;20388;-79
2022/06/18 11:08:21;;;;;;;4.10;1.40;;;;;;;31.53;40.85;101626.88;5035668;28;20033;-75
2022/06/18 11:10:53;;;;;;;4.55;1.60;;;;;;;30.17;41.82;101627.94;5035222;28;20449;-78
2022/06/18 11:13:35;;;;;;;4.43;1.55;;;;;;;31.13;41.45;101618.81;5035827;28;20033;-78
2022/06/18 11:16:22;;;;;;;4.43;1.80;;;;;;;29.76;42.36;101624.22;5033999;28;20017;-78
2022/06/18 11:18:56;;;;;;;4.68;1.70;;;;;;;30.59;42.09;101621.44;5035317;28;20495;-78
2022/06/18 11:21:35;;;;;;;7.97;1.60;;;;;;;30.69;40.95;101615.84;5035425;28;20492;-78
2022/06/18 11:24:13;;;;;;;5.38;1.73;;;;;;;30.67;41.59;101617.22;5035559;28;20503;-78
2022/06/18 11:27:01;;;;;;;3.47;1.67;;;;;;;29.50;43.13;101612.44;5034278;28;20037;-77
2022/06/18 11:29:29;;;;;;;6.60;1.52;;;;;;;29.97;43.27;101619.25;5035493;28;20511;-77
2022/06/18 11:31:59;;;;;;;6.82;1.67;;;;;;;30.67;41.45;101614.56;5035222;28;20104;-77
2022/06/18 11:34:27;;;;;;;5.60;1.58;;;;;;;30.66;41.70;101615.66;5033929;28;20412;-77
2022/06/18 11:36:57;;;;;;;4.38;1.60;;;;;;;30.93;41.92;101612.91;5035326;28;20024;-78
2022/06/18 11:39:35;;;;;;;5.68;1.70;;;;;;;31.08;41.19;101619.75;5036502;28;20030;-78
2022/06/18 11:42:33;;;;;;;5.88;1.80;;;;;;;30.51;42.58;101625.59;5035864;28;20361;-78
2022/06/18 11:45:07;;;;;;;4.25;1.70;;;;;;;30.68;42.14;101619.63;5025998;28;20498;-77
2022/06/18 11:47:49;;;;;;;5.95;1.60;;;;;;;30.49;42.15;101619.78;5035434;28;20580;-79
2022/06/18 11:50:15;;;;;;;4.40;1.67;;;;;;;30.94;41.72;101611.81;5033779;28;20018;-79